Skip Navigation Links Skip Navigation Links

Current Weather

Lynchburg Regional/Preston Glenn Fld, Lynchburg, Va.

For information only: do not use for flight planning or navigation.
Latest weather
Observation time Thursday, December 13, 2018 12:54 PM EST
Local time Thursday, December 13, 2018 1:15 PM EST
Flight conditions Visual Meteorological Conditions
Winds
Wind direction South-Southwest (210°)
Wind speed 7 mph
Visibility 10 mi.
Sky condition
Ceiling 4,600 ft. overcast
Cloud layer overcast 4,600 ft.
Temperature 41°F
Dewpoint 29°F
Altimeter 30.25 in.Hg
Pressure change last 3 hours0.02 in.Hg
Pressure falling more quickly
Derived measurements
Relative humidity 62%
Wind chill 36°F
Density altitude -564 ft.
Sea-level pressure 30.27 in.Hg
Climate data
Temperature minimum, last 6 hours 34°F
Temperature maximum, last 6 hours 42°F
Remarks
Automated weather observing station with precipitation discriminator.
METAR KLYH 131754Z 21006KT 10SM OVC046 05/M02 A3025 RMK AO2 SLP250 T00501017 10056 20011 58006

Settings

Location code

InnerDrive.Weather 4.0.6770.0 Release CLR 4.0.30319.42000
Copyright ©2018 Inner Drive Technology. All rights reserved. Portions Copyright ©1986-2018 David Braverman.

Find weather

Site navigation


Skip Navigation Links

Place info

Page info

PayPal - The safer, easier way to pay online!

Return home.

Copyright ©2018 Inner Drive Technology. Purveyors of fine, hand-crafted computer software. Page printed 2018-12-13T18:15:23 UTC.